Time;durP1;ratioP1;P1;durP2;ratioP2;P2;SDS_P1;SDS_P2;PMS_P1;PMS_P2;Temp;Humidity;BMP_temperature;BMP_pressure;BME280_temperature;BME280_humidity;BME280_pressure;Samples;Min_cycle;Max_cycle;Signal;HPM_P1;HPM_P2
2021/04/15 00:00:31;;;;;;;14.02;6.95;;;0.90;93.30;;;;;;5008390;28;20025;-77
2021/04/15 00:03:01;;;;;;;9.70;5.95;;;1.00;93.30;;;;;;5002469;28;20042;-77
2021/04/15 00:05:28;;;;;;;10.98;5.90;;;1.00;93.10;;;;;;4986104;28;20124;-77
2021/04/15 00:07:54;;;;;;;8.40;6.18;;;1.00;93.00;;;;;;4982948;28;20031;-77
2021/04/15 00:10:28;;;;;;;9.98;6.25;;;1.00;92.90;;;;;;4994103;28;20026;-77
2021/04/15 00:12:54;;;;;;;10.80;6.20;;;1.00;92.70;;;;;;5006934;28;20041;-77
2021/04/15 00:15:19;;;;;;;10.18;6.40;;;0.80;92.90;;;;;;4982822;28;20030;-78
2021/04/15 00:17:45;;;;;;;10.13;6.18;;;0.60;92.80;;;;;;4967517;28;20053;-77
2021/04/15 00:20:11;;;;;;;14.95;6.70;;;0.80;93.20;;;;;;5002726;28;20490;-77
2021/04/15 00:22:36;;;;;;;14.48;6.63;;;0.80;92.90;;;;;;4988789;28;20040;-77
2021/04/15 00:25:02;;;;;;;9.82;6.53;;;1.00;92.40;;;;;;4982429;28;20023;-77
2021/04/15 00:27:28;;;;;;;8.00;5.03;;;1.00;92.20;;;;;;4992337;28;20386;-77
2021/04/15 00:29:54;;;;;;;9.73;5.70;;;1.10;92.10;;;;;;4990032;28;20045;-77
2021/04/15 00:32:19;;;;;;;9.25;5.90;;;1.10;91.80;;;;;;4987364;28;20099;-78
2021/04/15 00:34:45;;;;;;;8.15;5.13;;;1.20;92.10;;;;;;4974218;28;20030;-78
2021/04/15 00:37:10;;;;;;;11.30;6.43;;;1.00;91.60;;;;;;4996832;28;20045;-77
2021/04/15 00:39:36;;;;;;;11.88;6.85;;;1.20;91.70;;;;;;4984694;28;20463;-78
2021/04/15 00:42:02;;;;;;;9.95;6.10;;;1.00;91.80;;;;;;5007315;28;20037;-77
2021/04/15 00:44:27;;;;;;;10.20;6.97;;;1.00;92.10;;;;;;5005159;28;20033;-77
2021/04/15 00:46:59;;;;;;;14.52;8.20;;;1.10;92.00;;;;;;4982642;28;20026;-77
2021/04/15 00:49:33;;;;;;;12.63;7.07;;;1.00;91.80;;;;;;5006303;28;20124;-78
2021/04/15 00:52:04;;;;;;;10.95;8.20;;;1.00;92.00;;;;;;4980374;28;20058;-77
2021/04/15 00:54:43;;;;;;;13.20;8.43;;;0.90;91.80;;;;;;5007281;28;20091;-77
2021/04/15 00:57:31;;;;;;;11.85;7.63;;;0.90;92.00;;;;;;4987650;28;20429;-77
2021/04/15 00:59:56;;;;;;;11.52;8.05;;;1.00;91.80;;;;;;4983992;28;20034;-77
2021/04/15 01:02:22;;;;;;;12.02;6.70;;;0.90;92.00;;;;;;4968140;28;20037;-77
2021/04/15 01:04:52;;;;;;;9.32;6.70;;;0.80;92.40;;;;;;4984302;28;20030;-77
2021/04/15 01:07:18;;;;;;;9.80;6.57;;;0.90;92.10;;;;;;4985649;28;20062;-77
2021/04/15 01:09:45;;;;;;;12.80;8.73;;;0.90;91.80;;;;;;4995491;28;20072;-77
2021/04/15 01:12:29;;;;;;;16.88;9.43;;;0.90;91.60;;;;;;4986855;28;20070;-77
2021/04/15 01:15:14;;;;;;;13.07;8.45;;;0.80;91.80;;;;;;5003052;28;20523;-77
2021/04/15 01:17:42;;;;;;;12.35;8.77;;;0.70;91.80;;;;;;5005600;28;20116;-77
2021/04/15 01:20:13;;;;;;;10.45;7.45;;;0.80;91.90;;;;;;5009289;28;20398;-77
2021/04/15 01:23:02;;;;;;;14.52;10.05;;;0.70;92.10;;;;;;5004021;28;20485;-77
2021/04/15 01:25:52;;;;;;;13.80;9.30;;;0.60;92.00;;;;;;4985233;28;20037;-77
2021/04/15 01:28:21;;;;;;;14.50;10.43;;;0.60;92.20;;;;;;4986043;28;20030;-77
2021/04/15 01:30:53;;;;;;;14.45;10.63;;;0.50;92.30;;;;;;4996037;28;20045;-77
2021/04/15 01:33:32;;;;;;;18.13;11.60;;;0.40;92.60;;;;;;4975937;28;20550;-77
2021/04/15 01:36:01;;;;;;;14.77;9.27;;;0.40;92.80;;;;;;5003810;28;20038;-77
2021/04/15 01:38:30;;;;;;;14.65;9.93;;;0.50;92.50;;;;;;4970196;28;20469;-76
2021/04/15 01:41:08;;;;;;;12.65;8.75;;;0.60;92.40;;;;;;4983405;28;20047;-77
2021/04/15 01:43:37;;;;;;;11.52;8.65;;;0.80;92.10;;;;;;4997255;28;20041;-77
2021/04/15 01:46:03;;;;;;;13.27;8.48;;;0.80;92.00;;;;;;4991712;28;20037;-77
2021/04/15 01:48:40;;;;;;;13.65;9.77;;;0.70;91.80;;;;;;5009372;28;20040;-77
2021/04/15 01:51:30;;;;;;;10.27;7.32;;;0.60;91.90;;;;;;4997794;28;20127;-77
2021/04/15 01:54:15;;;;;;;13.13;10.15;;;0.60;92.10;;;;;;4998614;28;20026;-77
2021/04/15 01:57:00;;;;;;;10.32;7.65;;;0.60;92.10;;;;;;4998962;28;20042;-77
2021/04/15 01:59:28;;;;;;;10.43;8.00;;;0.50;92.20;;;;;;5001199;28;20138;-77
2021/04/15 02:01:54;;;;;;;15.75;10.55;;;0.70;92.00;;;;;;4997082;28;20035;-77
2021/04/15 02:04:23;;;;;;;13.93;9.25;;;0.70;91.80;;;;;;4983761;28;20226;-77
2021/04/15 02:06:51;;;;;;;17.98;10.27;;;0.70;91.70;;;;;;4970482;28;20034;-77
2021/04/15 02:09:17;;;;;;;17.58;10.32;;;0.50;91.70;;;;;;4974742;28;20045;-77
2021/04/15 02:11:46;;;;;;;11.73;8.10;;;0.50;92.00;;;;;;4990511;28;20032;-77
2021/04/15 02:14:15;;;;;;;12.65;8.23;;;0.50;92.10;;;;;;4981026;28;20061;-77
2021/04/15 02:16:42;;;;;;;13.70;8.82;;;0.70;92.10;;;;;;4978984;28;20045;-75
2021/04/15 02:19:10;;;;;;;9.45;7.05;;;0.60;91.80;;;;;;5004652;28;20065;-76
2021/04/15 02:22:08;;;;;;;12.75;7.43;;;0.60;91.80;;;;;;4989893;28;20053;-76
2021/04/15 02:25:08;;;;;;;15.93;9.10;;;0.50;91.90;;;;;;4986953;28;20481;-76
2021/04/15 02:28:00;;;;;;;11.30;7.88;;;0.50;91.70;;;;;;5003545;28;20512;-76
2021/04/15 02:30:31;;;;;;;12.90;7.47;;;0.40;91.80;;;;;;4992225;28;20087;-77
2021/04/15 02:32:59;;;;;;;16.58;10.38;;;0.50;92.00;;;;;;4983326;28;20034;-76
2021/04/15 02:35:28;;;;;;;16.10;9.15;;;0.50;91.80;;;;;;5004794;28;20598;-76
2021/04/15 02:37:55;;;;;;;14.35;10.10;;;0.40;91.60;;;;;;4996203;28;20053;-76
2021/04/15 02:40:25;;;;;;;19.02;11.35;;;0.20;91.80;;;;;;4981756;28;20563;-77
2021/04/15 02:42:51;;;;;;;16.10;11.32;;;0.00;92.30;;;;;;4982177;28;20026;-75
2021/04/15 02:45:34;;;;;;;16.90;10.85;;;0.00;92.50;;;;;;4974492;28;20152;-78
2021/04/15 02:48:08;;;;;;;15.65;11.20;;;0.00;92.50;;;;;;4973973;28;20062;-78
2021/04/15 02:50:33;;;;;;;14.02;9.98;;;0.00;92.60;;;;;;4982635;28;20018;-78
2021/04/15 02:53:19;;;;;;;12.82;9.48;;;0.00;92.40;;;;;;4996855;28;20110;-77
2021/04/15 02:56:29;;;;;;;15.35;10.25;;;0.10;92.10;;;;;;4984613;28;20069;-76
2021/04/15 02:59:02;;;;;;;15.55;7.60;;;0.10;92.00;;;;;;4989929;28;20450;-76
2021/04/15 03:01:31;;;;;;;10.95;8.45;;;0.00;92.00;;;;;;5000529;28;20076;-77
2021/04/15 03:03:57;;;;;;;10.55;7.75;;;0.10;92.10;;;;;;4994863;28;20034;-77
2021/04/15 03:06:30;;;;;;;14.70;9.60;;;0.10;91.60;;;;;;5008277;28;20371;-77
2021/04/15 03:08:58;;;;;;;15.32;10.02;;;0.00;91.90;;;;;;4984608;28;20040;-77
2021/04/15 03:11:27;;;;;;;11.60;7.78;;;-0.10;92.00;;;;;;4968692;28;20030;-77
2021/04/15 03:13:54;;;;;;;17.42;10.30;;;0.00;92.00;;;;;;4980767;28;20092;-77
2021/04/15 03:16:26;;;;;;;16.67;9.77;;;-0.10;91.90;;;;;;4983263;28;20138;-77
2021/04/15 03:19:06;;;;;;;13.65;9.38;;;-0.10;92.10;;;;;;4967115;28;20422;-77
2021/04/15 03:21:55;;;;;;;13.48;8.98;;;-0.20;92.10;;;;;;5003321;28;20044;-77
2021/04/15 03:24:34;;;;;;;12.82;9.70;;;-0.10;91.90;;;;;;4995712;28;20443;-77
2021/04/15 03:27:25;;;;;;;13.73;8.65;;;-0.20;91.70;;;;;;4999945;28;20059;-77
2021/04/15 03:30:05;;;;;;;12.98;8.98;;;-0.30;92.00;;;;;;4966211;28;20042;-77
2021/04/15 03:32:33;;;;;;;14.68;9.60;;;-0.30;92.00;;;;;;5001565;28;20048;-77
2021/04/15 03:35:10;;;;;;;12.57;8.55;;;-0.40;91.80;;;;;;5000695;28;20057;-77
2021/04/15 03:37:58;;;;;;;14.13;9.30;;;-0.50;92.20;;;;;;5007906;28;20061;-77
2021/04/15 03:40:25;;;;;;;14.43;8.10;;;-0.40;92.20;;;;;;5009084;28;20030;-77
2021/04/15 03:43:05;;;;;;;12.07;7.78;;;-0.50;92.10;;;;;;4985491;28;20038;-77
2021/04/15 03:45:40;;;;;;;16.40;9.68;;;-0.40;92.50;;;;;;5002771;28;20044;-77
2021/04/15 03:48:07;;;;;;;12.00;8.23;;;-0.40;92.30;;;;;;5006524;28;20061;-77
2021/04/15 03:50:55;;;;;;;10.63;7.70;;;-0.50;92.20;;;;;;5002148;28;20034;-77
2021/04/15 03:53:46;;;;;;;11.80;8.07;;;-0.40;92.60;;;;;;5019528;28;20034;-77
2021/04/15 03:56:28;;;;;;;12.65;8.45;;;-0.50;92.60;;;;;;4989625;28;20044;-77
2021/04/15 03:59:00;;;;;;;15.65;9.10;;;-0.60;92.40;;;;;;4987635;28;20042;-77
2021/04/15 04:01:27;;;;;;;14.82;9.57;;;-0.60;92.60;;;;;;4987343;28;20041;-77
2021/04/15 04:04:41;;;;;;;14.57;10.27;;;-0.90;92.60;;;;;;4981971;28;20038;-77
2021/04/15 04:07:16;;;;;;;13.63;7.68;;;-1.00;92.90;;;;;;5004037;28;20119;-77
2021/04/15 04:09:43;;;;;;;15.30;9.73;;;-0.80;92.90;;;;;;4992283;28;20037;-77
2021/04/15 04:12:11;;;;;;;14.52;10.20;;;-0.80;92.70;;;;;;4983321;28;20026;-76
2021/04/15 04:14:48;;;;;;;15.23;9.38;;;-0.80;92.90;;;;;;4983290;28;20517;-77
2021/04/15 04:17:17;;;;;;;14.48;9.52;;;-0.90;92.60;;;;;;4992689;28;20038;-77
2021/04/15 04:19:49;;;;;;;17.42;11.05;;;-0.60;92.50;;;;;;4986664;28;20034;-77
2021/04/15 04:23:03;;;;;;;13.93;10.05;;;-0.70;92.20;;;;;;4999484;28;20745;-77
2021/04/15 04:26:07;;;;;;;16.60;10.48;;;-1.20;92.40;;;;;;4990908;28;20108;-77
2021/04/15 04:28:41;;;;;;;17.58;11.77;;;-1.50;93.20;;;;;;4992087;28;20044;-77
2021/04/15 04:31:11;;;;;;;17.80;10.90;;;-1.40;93.70;;;;;;4983251;28;20400;-77
2021/04/15 04:33:37;;;;;;;18.42;11.38;;;-1.30;93.80;;;;;;4975753;28;20026;-77
2021/04/15 04:36:03;;;;;;;17.90;11.35;;;-1.40;94.10;;;;;;5000140;28;20045;-77
2021/04/15 04:38:30;;;;;;;17.27;11.35;;;-1.30;94.10;;;;;;4979716;28;20360;-77
2021/04/15 04:40:59;;;;;;;18.48;11.38;;;-1.20;93.40;;;;;;4971152;28;20042;-77
2021/04/15 04:43:36;;;;;;;21.98;13.38;;;-1.30;93.20;;;;;;5003554;28;20041;-77
2021/04/15 04:46:07;;;;;;;18.38;11.63;;;-1.40;93.60;;;;;;5006051;28;20042;-77
2021/04/15 04:48:35;;;;;;;20.70;11.63;;;-1.30;93.80;;;;;;4991305;28;20100;-77
2021/04/15 04:51:11;;;;;;;14.50;10.80;;;-1.30;93.40;;;;;;4988182;28;20042;-77
2021/04/15 04:53:37;;;;;;;;;;;-1.30;93.20;;;;;;4992046;28;20460;-77
2021/04/15 04:56:28;;;;;;;17.48;11.85;;;-1.30;93.30;;;;;;5005455;28;19972;-77
2021/04/15 04:58:55;;;;;;;20.50;10.88;;;-1.50;93.90;;;;;;4998016;28;20030;-77
2021/04/15 05:01:21;;;;;;;19.80;13.45;;;-1.60;93.90;;;;;;5003028;28;20056;-77
2021/04/15 05:03:46;;;;;;;22.40;14.18;;;-1.50;94.20;;;;;;4972874;28;20034;-77
2021/04/15 05:06:23;;;;;;;19.00;13.52;;;-1.40;94.60;;;;;;4992186;28;20034;-77
2021/04/15 05:09:08;;;;;;;24.45;14.95;;;-1.30;94.70;;;;;;4977884;28;20057;-77
2021/04/15 05:11:42;;;;;;;27.63;15.77;;;-1.30;94.80;;;;;;5016050;28;20029;-78
2021/04/15 05:14:08;;;;;;;26.83;16.45;;;-1.20;94.70;;;;;;5001429;28;20104;-77
2021/04/15 05:17:02;;;;;;;23.23;16.10;;;-1.10;95.00;;;;;;4998824;28;20039;-77
2021/04/15 05:19:28;;;;;;;29.25;17.52;;;-1.10;95.00;;;;;;4975718;28;20037;-77
2021/04/15 05:21:54;;;;;;;29.63;18.02;;;-0.90;94.80;;;;;;4987920;28;20034;-78
2021/04/15 05:24:27;;;;;;;32.42;17.48;;;-0.80;94.40;;;;;;4985207;28;20034;-78
2021/04/15 05:26:52;;;;;;;31.60;17.90;;;-0.70;93.90;;;;;;5001045;28;20111;-78
2021/04/15 05:29:26;;;;;;;26.88;15.13;;;-0.60;94.00;;;;;;4972234;28;20073;-78
2021/04/15 05:31:54;;;;;;;30.40;16.20;;;-0.50;93.60;;;;;;4978744;28;20037;-78
2021/04/15 05:34:23;;;;;;;25.23;15.07;;;-0.40;93.10;;;;;;4990399;28;20105;-77
2021/04/15 05:36:50;;;;;;;27.30;15.05;;;-0.50;93.00;;;;;;4996483;28;20038;-77
2021/04/15 05:39:17;;;;;;;27.17;17.23;;;-0.40;93.00;;;;;;4985502;28;20054;-78
2021/04/15 05:41:45;;;;;;;34.00;19.83;;;-0.40;93.10;;;;;;4984626;28;20039;-76
2021/04/15 05:44:20;;;;;;;31.75;19.60;;;-0.30;93.60;;;;;;4990528;28;20030;-76
2021/04/15 05:46:46;;;;;;;35.60;20.77;;;-0.20;93.80;;;;;;4989526;28;20082;-76
2021/04/15 05:49:27;;;;;;;38.50;22.70;;;-0.10;94.60;;;;;;4997252;28;20038;-76
2021/04/15 05:52:10;;;;;;;44.00;24.33;;;0.00;94.50;;;;;;4992141;28;20027;-76
2021/04/15 05:54:35;;;;;;;40.33;24.05;;;0.10;94.70;;;;;;5007833;28;20081;-76
2021/04/15 05:57:12;;;;;;;51.45;24.45;;;0.20;95.00;;;;;;4981599;28;20557;-76
2021/04/15 05:59:58;;;;;;;50.08;27.52;;;0.40;94.70;;;;;;4995499;28;20068;-76
2021/04/15 06:02:24;;;;;;;;;;;0.30;94.10;;;;;;4997440;28;20747;-76
2021/04/15 06:05:16;;;;;;;48.17;26.57;;;0.40;94.40;;;;;;5002719;28;19914;-76
2021/04/15 06:07:42;;;;;;;51.15;27.48;;;0.50;94.90;;;;;;4999909;28;20125;-76
2021/04/15 06:10:09;;;;;;;55.58;28.15;;;0.70;94.70;;;;;;4982578;28;20134;-76
2021/04/15 06:12:51;;;;;;;51.92;28.83;;;0.80;94.60;;;;;;4988591;28;20515;-76
2021/04/15 06:15:25;;;;;;;52.22;29.58;;;0.90;94.70;;;;;;5005855;28;20037;-76
2021/04/15 06:17:58;;;;;;;53.38;29.10;;;1.00;94.80;;;;;;4996090;28;20085;-77
2021/04/15 06:20:28;;;;;;;55.38;29.90;;;1.00;94.70;;;;;;4997988;28;20084;-77
2021/04/15 06:22:56;;;;;;;52.90;30.17;;;1.10;94.60;;;;;;4995557;28;20030;-76
2021/04/15 06:25:27;;;;;;;59.38;30.80;;;1.00;94.70;;;;;;4965132;28;20481;-76
2021/04/15 06:27:53;;;;;;;57.60;30.88;;;1.10;94.40;;;;;;4989433;28;20034;-77
2021/04/15 06:30:40;;;;;;;62.45;32.05;;;1.20;94.40;;;;;;4986080;28;20034;-76
2021/04/15 06:33:10;;;;;;;61.78;32.78;;;1.40;95.30;;;;;;4985045;28;20413;-76
2021/04/15 06:35:36;;;;;;;61.38;32.45;;;1.40;95.40;;;;;;4999274;28;20049;-77
2021/04/15 06:38:29;;;;;;;64.97;34.28;;;1.50;95.50;;;;;;4966645;28;20509;-77
2021/04/15 06:41:22;;;;;;;64.90;33.47;;;1.80;95.10;;;;;;5005203;28;20057;-76
2021/04/15 06:44:00;;;;;;;57.97;33.78;;;1.90;95.30;;;;;;5004254;28;20022;-77
2021/04/15 06:47:07;;;;;;;63.88;34.45;;;1.90;95.90;;;;;;4997249;28;20041;-77
2021/04/15 06:50:14;;;;;;;63.58;33.38;;;2.20;95.80;;;;;;5010736;28;20030;-77
2021/04/15 06:53:17;;;;;;;53.30;29.67;;;2.50;94.90;;;;;;5005801;28;20052;-77
2021/04/15 06:56:03;;;;;;;50.85;29.67;;;2.90;94.70;;;;;;5007351;28;20112;-77
2021/04/15 06:58:38;;;;;;;43.25;26.30;;;3.00;94.60;;;;;;5011653;28;20084;-77
2021/04/15 07:01:28;;;;;;;38.67;23.17;;;3.10;94.70;;;;;;5009218;28;20034;-77
2021/04/15 07:04:05;;;;;;;42.65;21.90;;;3.30;94.40;;;;;;4998423;28;20034;-76
2021/04/15 07:06:45;;;;;;;26.75;15.75;;;3.60;94.10;;;;;;5004015;28;20033;-77
2021/04/15 07:09:33;;;;;;;31.27;17.73;;;3.60;93.90;;;;;;4987541;28;20035;-76
2021/04/15 07:12:16;;;;;;;26.60;16.23;;;3.90;93.70;;;;;;5012254;28;20033;-76
2021/04/15 07:15:04;;;;;;;28.67;15.82;;;4.10;94.10;;;;;;5016600;28;20045;-76
2021/04/15 07:17:45;;;;;;;25.58;15.10;;;4.20;93.60;;;;;;5002565;28;20164;-76
2021/04/15 07:20:32;;;;;;;28.98;13.98;;;4.30;93.60;;;;;;5003817;28;20033;-76
2021/04/15 07:23:24;;;;;;;21.73;12.40;;;4.40;93.40;;;;;;5013343;28;20030;-76
2021/04/15 07:26:11;;;;;;;18.13;11.43;;;4.60;94.20;;;;;;5000056;28;20112;-76
2021/04/15 07:29:15;;;;;;;19.90;10.02;;;4.80;92.50;;;;;;5001793;28;20505;-76
2021/04/15 07:31:59;;;;;;;16.38;9.95;;;5.10;92.10;;;;;;4952078;28;20035;-76
2021/04/15 07:35:03;;;;;;;22.65;12.27;;;5.30;92.20;;;;;;5001676;28;20085;-77
2021/04/15 07:37:47;;;;;;;21.88;13.23;;;5.30;93.20;;;;;;4956112;28;20037;-77
2021/04/15 07:40:40;;;;;;;15.80;9.60;;;5.10;94.70;;;;;;5009503;28;20027;-77
2021/04/15 07:43:43;;;;;;;19.35;12.57;;;5.40;92.80;;;;;;5012989;28;20045;-76
2021/04/15 07:46:21;;;;;;;20.17;12.10;;;5.60;93.60;;;;;;5015838;28;20048;-76
2021/04/15 07:49:07;;;;;;;22.10;13.60;;;5.70;93.30;;;;;;4994360;28;20468;-77
2021/04/15 07:51:46;;;;;;;18.40;12.23;;;5.60;94.50;;;;;;5001686;28;20061;-77
2021/04/15 07:54:30;;;;;;;17.83;10.30;;;6.20;92.40;;;;;;4993678;28;20050;-76
2021/04/15 07:57:08;;;;;;;18.80;11.25;;;6.30;91.30;;;;;;5012145;28;20108;-77
2021/04/15 08:00:12;;;;;;;16.27;9.32;;;6.30;93.90;;;;;;5017346;28;20057;-77
2021/04/15 08:02:59;;;;;;;19.05;8.98;;;6.30;93.00;;;;;;5021422;28;20058;-76
2021/04/15 08:05:38;;;;;;;24.30;11.20;;;6.70;92.80;;;;;;5001448;28;20034;-77
2021/04/15 08:08:25;;;;;;;14.20;8.27;;;6.60;94.70;;;;;;4984330;28;20034;-77
2021/04/15 08:11:00;;;;;;;21.25;10.13;;;6.60;94.90;;;;;;5007486;28;20041;-76
2021/04/15 08:13:53;;;;;;;16.40;9.27;;;6.80;95.60;;;;;;5011321;28;20049;-77
2021/04/15 08:16:37;;;;;;;13.15;8.05;;;7.10;94.80;;;;;;4999798;28;20052;-77
2021/04/15 08:19:12;;;;;;;11.32;7.53;;;7.20;94.60;;;;;;5009047;28;20081;-77
2021/04/15 08:22:10;;;;;;;13.25;7.32;;;7.40;94.70;;;;;;5004405;28;20033;-77
2021/04/15 08:25:12;;;;;;;13.00;8.20;;;7.40;95.60;;;;;;4999438;28;20030;-77
2021/04/15 08:27:55;;;;;;;9.20;4.88;;;7.70;95.10;;;;;;4990565;28;20049;-77
2021/04/15 08:30:30;;;;;;;7.85;4.95;;;7.90;95.60;;;;;;5012454;28;20096;-77
2021/04/15 08:32:59;;;;;;;10.15;4.90;;;8.10;93.50;;;;;;5007860;28;20414;-77
2021/04/15 08:36:02;;;;;;;11.63;6.15;;;8.10;95.00;;;;;;5015096;28;20068;-77
2021/04/15 08:39:05;;;;;;;11.70;5.35;;;8.10;94.90;;;;;;5022458;28;20095;-77
2021/04/15 08:41:55;;;;;;;8.40;5.18;;;8.40;95.20;;;;;;5014082;28;20055;-77
2021/04/15 08:44:45;;;;;;;8.05;4.85;;;8.90;93.70;;;;;;5000264;28;20037;-78
2021/04/15 08:47:15;;;;;;;9.27;4.80;;;9.00;94.50;;;;;;5020191;28;20103;-77
2021/04/15 08:50:02;;;;;;;6.93;4.82;;;9.00;95.30;;;;;;5012589;28;20120;-78
2021/04/15 08:52:53;;;;;;;10.73;5.90;;;9.10;95.40;;;;;;4983185;28;20049;-78
2021/04/15 08:55:37;;;;;;;11.27;5.15;;;9.20;95.50;;;;;;4996999;28;20034;-78
2021/04/15 08:58:42;;;;;;;9.35;4.70;;;9.20;95.00;;;;;;5005513;28;20129;-78
2021/04/15 09:01:41;;;;;;;8.57;3.80;;;9.30;94.60;;;;;;4989208;28;20116;-78
2021/04/15 09:04:16;;;;;;;6.30;3.58;;;9.50;95.00;;;;;;4983955;28;20076;-78
2021/04/15 09:07:07;;;;;;;5.60;3.05;;;9.60;93.90;;;;;;4990691;28;20060;-78
2021/04/15 09:10:11;;;;;;;7.55;3.00;;;9.60;92.40;;;;;;5001266;28;20481;-78
2021/04/15 09:12:58;;;;;;;5.35;2.85;;;9.60;93.30;;;;;;4931400;28;20039;-78
2021/04/15 09:15:28;;;;;;;;;;;9.60;92.50;;;;;;4928166;28;20119;-78
2021/04/15 09:18:18;;;;;;;5.22;1.83;;;9.60;92.90;;;;;;4963140;28;19925;-77
2021/04/15 09:20:52;;;;;;;4.53;2.40;;;9.60;93.20;;;;;;5006742;28;20042;-78
2021/04/15 09:23:26;;;;;;;7.95;2.42;;;9.70;93.20;;;;;;5008824;28;20068;-77
2021/04/15 09:26:16;;;;;;;8.15;2.50;;;9.80;93.10;;;;;;4994980;28;20038;-78
2021/04/15 09:28:46;;;;;;;3.67;1.63;;;9.90;92.70;;;;;;5010430;28;20040;-78
2021/04/15 09:31:33;;;;;;;3.55;1.80;;;9.90;92.20;;;;;;5024207;28;20475;-78
2021/04/15 09:33:58;;;;;;;3.88;2.20;;;9.90;90.50;;;;;;4983648;28;20041;-78
2021/04/15 09:37:01;;;;;;;7.72;2.15;;;10.00;91.90;;;;;;5011046;28;20045;-79
2021/04/15 09:39:36;;;;;;;3.72;2.03;;;10.30;91.90;;;;;;5007851;28;20501;-78
2021/04/15 09:42:37;;;;;;;5.88;2.75;;;10.50;90.70;;;;;;5007758;28;20180;-79
2021/04/15 09:45:09;;;;;;;7.00;2.10;;;11.00;90.10;;;;;;5004619;28;20030;-78
2021/04/15 09:47:40;;;;;;;9.07;2.25;;;11.30;88.90;;;;;;5002941;28;20021;-78
2021/04/15 09:50:21;;;;;;;7.50;2.40;;;11.50;89.60;;;;;;4997060;28;20041;-78
2021/04/15 09:53:04;;;;;;;4.03;1.88;;;11.60;90.10;;;;;;5007285;28;20033;-78
2021/04/15 09:55:54;;;;;;;5.40;1.70;;;11.70;86.80;;;;;;5000311;28;20026;-78
2021/04/15 09:58:45;;;;;;;2.72;2.03;;;11.90;83.80;;;;;;5008360;28;20057;-79
2021/04/15 10:01:16;;;;;;;4.82;1.70;;;12.20;89.90;;;;;;4978090;28;20062;-78
2021/04/15 10:03:48;;;;;;;3.10;1.75;;;12.20;88.20;;;;;;4982971;28;20036;-78
2021/04/15 10:06:30;;;;;;;4.68;1.83;;;12.20;87.80;;;;;;4990926;28;20056;-78
2021/04/15 10:08:56;;;;;;;4.18;1.88;;;12.20;86.60;;;;;;4988433;28;20417;-79
2021/04/15 10:11:27;;;;;;;4.07;1.83;;;12.40;84.90;;;;;;5008759;28;20023;-78
2021/04/15 10:14:15;;;;;;;8.38;2.20;;;12.40;86.60;;;;;;5008669;28;20037;-78
2021/04/15 10:16:45;;;;;;;4.90;2.38;;;12.50;86.50;;;;;;4997904;28;20048;-78
2021/04/15 10:19:14;;;;;;;6.15;2.28;;;12.70;84.40;;;;;;4986928;28;20236;-78
2021/04/15 10:21:54;;;;;;;3.70;2.10;;;12.60;81.40;;;;;;5009015;28;20030;-78
2021/04/15 10:24:29;;;;;;;5.53;2.50;;;12.50;82.20;;;;;;4999951;28;20117;-78
2021/04/15 10:27:18;;;;;;;3.72;2.40;;;12.70;83.40;;;;;;4990804;28;20123;-78
2021/04/15 10:30:07;;;;;;;4.18;2.17;;;12.60;84.00;;;;;;4996709;28;20042;-78
2021/04/15 10:33:01;;;;;;;4.10;2.35;;;12.60;82.80;;;;;;5020716;28;20040;-78
2021/04/15 10:35:54;;;;;;;8.10;2.70;;;12.40;76.70;;;;;;5012741;28;20037;-78
2021/04/15 10:38:44;;;;;;;4.13;2.40;;;12.30;78.40;;;;;;5013310;28;20117;-79
2021/04/15 10:41:41;;;;;;;4.25;2.25;;;12.30;81.20;;;;;;5004431;28;20029;-78
2021/04/15 10:44:49;;;;;;;4.80;2.70;;;12.40;81.40;;;;;;4984480;28;20552;-79
2021/04/15 10:47:46;;;;;;;3.85;2.30;;;12.50;80.60;;;;;;5000779;28;20038;-79
2021/04/15 10:50:14;;;;;;;;;;;12.60;81.30;;;;;;4996110;28;20048;-79
2021/04/15 10:52:52;;;;;;;5.60;2.00;;;13.40;81.00;;;;;;4985307;28;19956;-79
2021/04/15 10:55:18;;;;;;;6.00;2.13;;;13.30;81.50;;;;;;5008430;28;20026;-78
2021/04/15 10:57:44;;;;;;;5.00;2.65;;;13.20;77.50;;;;;;4988120;28;20042;-79
2021/04/15 11:00:30;;;;;;;7.35;2.70;;;13.20;78.40;;;;;;4988602;28;20338;-79
2021/04/15 11:03:10;;;;;;;7.75;2.90;;;13.80;80.90;;;;;;4985036;28;20445;-78
2021/04/15 11:05:44;;;;;;;6.15;2.50;;;14.50;79.80;;;;;;4994356;28;20501;-78
2021/04/15 11:08:30;;;;;;;5.45;2.70;;;14.30;76.80;;;;;;4975737;28;20042;-76
2021/04/15 11:11:15;;;;;;;5.32;2.90;;;14.50;79.30;;;;;;4983193;28;20037;-76
2021/04/15 11:13:41;;;;;;;5.20;2.92;;;14.60;77.10;;;;;;4994745;28;20417;-77
2021/04/15 11:16:18;;;;;;;7.40;3.00;;;14.60;76.00;;;;;;4959004;28;20030;-76
2021/04/15 11:18:44;;;;;;;4.90;2.85;;;14.80;78.40;;;;;;4987785;28;20391;-77
2021/04/15 11:21:15;;;;;;;5.88;3.53;;;14.70;79.40;;;;;;4981157;28;20450;-77
2021/04/15 11:23:41;;;;;;;3.75;2.60;;;14.60;79.90;;;;;;5008929;28;20030;-77
2021/04/15 11:26:20;;;;;;;4.88;3.20;;;14.60;77.30;;;;;;4984301;28;20037;-77
2021/04/15 11:28:46;;;;;;;5.15;2.67;;;14.70;77.00;;;;;;4985586;28;20117;-77
2021/04/15 11:31:11;;;;;;;4.07;2.42;;;15.00;79.10;;;;;;4984883;28;20173;-76
2021/04/15 11:33:43;;;;;;;3.65;3.03;;;15.10;74.20;;;;;;5004908;28;20040;-76
2021/04/15 11:36:25;;;;;;;6.45;2.78;;;15.00;74.70;;;;;;4996729;28;20034;-77
2021/04/15 11:39:06;;;;;;;5.03;2.78;;;15.00;76.20;;;;;;4968675;28;20053;-77
2021/04/15 11:41:46;;;;;;;3.95;2.70;;;14.90;73.30;;;;;;4987012;28;20029;-77
2021/04/15 11:44:14;;;;;;;4.43;2.97;;;14.80;73.70;;;;;;5001528;28;20041;-80
2021/04/15 11:47:15;;;;;;;5.03;2.75;;;14.90;76.70;;;;;;4995575;28;20049;-79
2021/04/15 11:49:43;;;;;;;5.18;2.80;;;15.00;75.70;;;;;;4311821;28;10000140;-77
2021/04/15 11:52:11;;;;;;;3.22;2.63;;;15.30;74.80;;;;;;4980307;28;20556;-77
2021/04/15 11:54:40;;;;;;;10.00;2.60;;;15.40;72.30;;;;;;5003205;28;20040;-77
2021/04/15 11:57:29;;;;;;;6.25;3.05;;;15.30;68.20;;;;;;4994939;28;20052;-77
2021/04/15 12:00:01;;;;;;;4.25;3.30;;;15.40;70.20;;;;;;4965517;28;20402;-76
2021/04/15 12:02:42;;;;;;;4.88;3.67;;;15.50;70.80;;;;;;4995613;28;20462;-77
2021/04/15 12:05:30;;;;;;;7.40;4.03;;;15.60;65.90;;;;;;4998390;28;20462;-77
2021/04/15 12:08:15;;;;;;;7.75;3.60;;;15.70;63.30;;;;;;4997842;28;20038;-78
2021/04/15 12:10:43;;;;;;;4.70;3.67;;;15.90;68.70;;;;;;5007650;28;20030;-78
2021/04/15 12:13:29;;;;;;;12.07;4.00;;;16.10;67.30;;;;;;4968533;28;20049;-77
2021/04/15 12:16:05;;;;;;;7.43;3.97;;;16.30;69.00;;;;;;4970745;28;20490;-77
2021/04/15 12:18:56;;;;;;;5.55;4.07;;;16.40;72.00;;;;;;4987385;28;20195;-77
2021/04/15 12:21:24;;;;;;;8.48;4.72;;;16.30;59.60;;;;;;4999387;28;20100;-77
2021/04/15 12:24:14;;;;;;;8.10;4.18;;;16.00;59.40;;;;;;5007884;28;20096;-78
2021/04/15 12:26:48;;;;;;;6.78;4.07;;;15.90;62.80;;;;;;5009848;28;20030;-77
2021/04/15 12:29:36;;;;;;;4.88;3.67;;;15.70;59.60;;;;;;4998575;28;20418;-77
2021/04/15 12:32:06;;;;;;;7.47;4.13;;;15.50;62.80;;;;;;4997217;28;20117;-78
2021/04/15 12:34:56;;;;;;;7.28;4.85;;;15.50;64.20;;;;;;5015325;28;20026;-77
2021/04/15 12:37:29;;;;;;;6.00;4.38;;;15.30;59.30;;;;;;5012915;28;20038;-78
2021/04/15 12:40:07;;;;;;;7.22;4.53;;;15.10;60.00;;;;;;5007249;28;20482;-77
2021/04/15 12:42:34;;;;;;;5.70;4.40;;;14.90;63.50;;;;;;5011041;28;20072;-77
2021/04/15 12:45:00;;;;;;;5.03;4.07;;;14.80;61.70;;;;;;4979467;28;20376;-77
2021/04/15 12:47:29;;;;;;;5.88;3.92;;;14.60;62.30;;;;;;5000015;28;20025;-78
2021/04/15 12:49:55;;;;;;;4.82;3.90;;;14.50;62.00;;;;;;4979778;28;20599;-78
2021/04/15 12:52:21;;;;;;;5.40;4.50;;;14.50;62.90;;;;;;4980043;28;20038;-77
2021/04/15 12:54:46;;;;;;;6.50;4.35;;;14.50;65.20;;;;;;4981574;28;20121;-77
2021/04/15 12:57:13;;;;;;;8.10;4.47;;;14.60;66.60;;;;;;4969763;28;20401;-77
2021/04/15 12:59:42;;;;;;;8.93;4.95;;;14.80;65.50;;;;;;4990531;28;20634;-77
2021/04/15 13:02:27;;;;;;;10.38;5.32;;;14.90;64.80;;;;;;4981914;28;20025;-77
2021/04/15 13:04:56;;;;;;;6.00;4.20;;;15.00;59.80;;;;;;4995916;28;20510;-78
2021/04/15 13:07:22;;;;;;;10.55;4.25;;;15.10;62.80;;;;;;4995006;28;20123;-78
2021/04/15 13:09:49;;;;;;;4.93;4.25;;;15.20;64.10;;;;;;5008854;28;20175;-78
2021/04/15 13:12:21;;;;;;;9.13;5.35;;;15.20;66.40;;;;;;4997212;28;20033;-77
2021/04/15 13:14:50;;;;;;;8.60;4.70;;;15.30;66.40;;;;;;5005120;28;20079;-78
2021/04/15 13:17:34;;;;;;;8.80;4.60;;;15.40;63.20;;;;;;5001978;28;20042;-77
2021/04/15 13:20:03;;;;;;;8.70;4.97;;;15.40;62.60;;;;;;4996464;28;20478;-78
2021/04/15 13:22:39;;;;;;;6.72;4.63;;;15.40;62.40;;;;;;4988207;28;20116;-78
2021/04/15 13:25:06;;;;;;;6.85;5.05;;;15.50;63.40;;;;;;4981340;28;20510;-77
2021/04/15 13:30:07;;;;;;;8.93;4.25;;;15.80;62.60;;;;;;5012881;28;20045;-77
2021/04/15 13:33:12;;;;;;;6.50;3.95;;;15.90;60.70;;;;;;5007891;28;20042;-78
2021/04/15 13:35:50;;;;;;;7.82;4.47;;;15.80;60.30;;;;;;5017072;28;20490;-78
2021/04/15 13:38:43;;;;;;;7.40;5.15;;;15.90;59.70;;;;;;4980580;28;20038;-78